Time;durP1;ratioP1;P1;durP2;ratioP2;P2;SDS_P1;SDS_P2;PMS_P1;PMS_P2;Temp;Humidity;BMP_temperature;BMP_pressure;BME280_temperature;BME280_humidity;BME280_pressure;Samples;Min_cycle;Max_cycle;Signal;HPM_P1;HPM_P2
2022/12/19 00:01:03;;;;;;;27.60;16.17;;;;;;;-0.58;92.08;100906.78;5101042;28;20563;-59
2022/12/19 00:03:30;;;;;;;33.23;18.37;;;;;;;-0.58;92.44;100898.91;5087653;28;21422;-59
2022/12/19 00:05:57;;;;;;;37.97;18.90;;;;;;;-0.57;92.51;100897.16;5101685;28;20471;-59
2022/12/19 00:08:25;;;;;;;33.23;18.37;;;;;;;-0.60;93.11;100902.53;5101715;28;20439;-59
2022/12/19 00:10:56;;;;;;;29.07;17.07;;;;;;;-0.60;93.81;100900.75;5101033;28;20498;-59
2022/12/19 00:13:23;;;;;;;29.42;17.65;;;;;;;-0.60;94.14;100892.00;5100777;28;20447;-59
2022/12/19 00:15:51;;;;;;;35.53;18.40;;;;;;;-0.61;94.53;100895.53;5101548;28;20648;-59
2022/12/19 00:18:18;;;;;;;29.20;17.60;;;;;;;-0.59;95.01;100891.97;5101902;28;20440;-59
2022/12/19 00:20:45;;;;;;;34.83;18.17;;;;;;;-0.59;95.44;100884.09;5063400;28;20238;-59
2022/12/19 00:23:11;;;;;;;39.50;19.50;;;;;;;-0.59;95.81;100883.19;5101806;28;20467;-59
2022/12/19 00:25:38;;;;;;;33.20;18.48;;;;;;;-0.53;96.09;100879.53;5101178;28;20463;-59
2022/12/19 00:28:05;;;;;;;32.30;15.87;;;;;;;-0.48;96.21;100870.56;5101634;28;20209;-59
2022/12/19 00:30:32;;;;;;;28.67;17.40;;;;;;;-0.41;96.32;100871.22;5100622;28;20471;-59
2022/12/19 00:33:00;;;;;;;36.27;20.00;;;;;;;-0.51;96.53;100875.06;5101494;28;20432;-59
2022/12/19 00:35:27;;;;;;;32.67;18.30;;;;;;;-0.59;97.09;100868.31;5100584;28;20466;-59
2022/12/19 00:37:53;;;;;;;36.70;20.03;;;;;;;-0.66;97.68;100864.22;5101634;28;20486;-59
2022/12/19 00:40:20;;;;;;;32.30;19.93;;;;;;;-0.59;98.05;100862.19;5100444;28;20483;-59
2022/12/19 00:42:47;;;;;;;37.05;19.80;;;;;;;-0.46;98.26;100862.63;5100695;28;20464;-59
2022/12/19 00:45:14;;;;;;;35.60;18.87;;;;;;;-0.47;98.69;100846.03;5101075;28;20272;-59
2022/12/19 00:47:40;;;;;;;32.05;18.08;;;;;;;-0.41;99.16;100850.19;5101654;28;21019;-59
2022/12/19 00:50:10;;;;;;;31.90;18.60;;;;;;;-0.31;99.43;100850.69;5099615;28;20202;-59
2022/12/19 00:52:36;;;;;;;38.33;20.20;;;;;;;-0.23;99.67;100848.66;5101161;28;20455;-59
2022/12/19 00:55:03;;;;;;;32.33;19.63;;;;;;;-0.11;99.88;100842.09;5101241;28;20454;-59
2022/12/19 00:57:30;;;;;;;28.57;18.13;;;;;;;-0.03;100.00;100830.34;5099933;28;20487;-59
2022/12/19 00:59:56;;;;;;;35.90;19.60;;;;;;;0.04;100.00;100835.41;5100802;28;20447;-59
2022/12/19 01:02:23;;;;;;;27.90;15.80;;;;;;;0.16;99.69;100825.25;5100377;28;20503;-59
2022/12/19 01:04:50;;;;;;;32.50;17.07;;;;;;;0.28;99.60;100826.53;5093404;28;20447;-59
2022/12/19 01:07:18;;;;;;;29.70;17.97;;;;;;;0.33;99.39;100818.44;5100458;28;20504;-59
2022/12/19 01:09:44;;;;;;;32.20;16.57;;;;;;;0.37;99.39;100822.69;5101382;28;20465;-59
2022/12/19 01:14:56;;;;;;;33.83;17.93;;;;;;;0.42;99.78;100815.47;5100636;28;20454;-60
2022/12/19 01:17:23;;;;;;;30.17;16.47;;;;;;;0.41;99.55;100813.75;5080378;28;20478;-59
2022/12/19 01:19:50;;;;;;;36.83;20.80;;;;;;;0.32;99.86;100803.59;5100615;28;20455;-59
2022/12/19 01:22:18;;;;;;;32.40;18.00;;;;;;;0.37;99.76;100802.50;5100472;28;20483;-59
2022/12/19 01:24:45;;;;;;;28.83;17.00;;;;;;;0.41;99.88;100813.75;5101572;28;20427;-59
2022/12/19 01:27:11;;;;;;;37.07;18.23;;;;;;;0.50;99.97;100813.38;5099990;28;20503;-59
2022/12/19 01:29:38;;;;;;;37.83;17.90;;;;;;;0.51;99.68;100807.19;5100705;28;20462;-59
2022/12/19 01:32:05;;;;;;;34.57;19.90;;;;;;;0.49;99.96;100806.41;5100784;28;20467;-60
2022/12/19 01:34:32;;;;;;;34.10;19.27;;;;;;;0.43;100.00;100797.91;5101157;28;20448;-59
2022/12/19 01:36:58;;;;;;;30.27;19.63;;;;;;;0.37;100.00;100799.88;5100163;28;20522;-59
2022/12/19 01:39:27;;;;;;;32.60;17.80;;;;;;;0.48;100.00;100788.91;5100295;28;20479;-59
2022/12/19 01:41:53;;;;;;;41.50;18.80;;;;;;;0.46;100.00;100788.13;5100159;28;20515;-59
2022/12/19 01:44:20;;;;;;;31.70;18.30;;;;;;;0.50;100.00;100773.91;5100143;28;20447;-59
2022/12/19 01:46:48;;;;;;;37.40;20.30;;;;;;;0.50;100.00;100778.31;5100003;28;20865;-59
2022/12/19 01:49:19;;;;;;;36.93;18.97;;;;;;;0.57;100.00;100785.03;5099831;28;20451;-59
2022/12/19 01:51:47;;;;;;;35.13;20.00;;;;;;;0.55;100.00;100773.72;5099604;28;20506;-59
2022/12/19 01:54:17;;;;;;;31.70;18.97;;;;;;;0.51;100.00;100774.78;5100970;28;20443;-59
2022/12/19 01:56:48;;;;;;;39.10;18.93;;;;;;;0.56;100.00;100775.44;5099864;28;20479;-59
2022/12/19 01:59:18;;;;;;;42.27;19.70;;;;;;;0.55;100.00;100771.94;5099436;28;20478;-59
2022/12/19 02:01:46;;;;;;;33.17;18.53;;;;;;;0.64;100.00;100772.47;5099777;28;20506;-60
2022/12/19 02:04:13;;;;;;;40.23;20.50;;;;;;;0.61;100.00;100762.09;5061092;28;20460;-60
2022/12/19 02:06:41;;;;;;;30.77;18.20;;;;;;;0.65;100.00;100767.16;5098631;28;20532;-59
2022/12/19 02:09:09;;;;;;;37.87;21.40;;;;;;;0.77;100.00;100760.53;5100453;28;20521;-59
2022/12/19 02:11:35;;;;;;;38.80;18.30;;;;;;;0.67;100.00;100756.56;5103031;28;21017;-59
2022/12/19 02:14:03;;;;;;;31.33;16.77;;;;;;;0.67;100.00;100743.41;5104058;28;20537;-60
2022/12/19 02:16:40;;;;;;;38.37;18.73;;;;;;;0.73;100.00;100749.28;5103447;28;20514;-59
2022/12/19 02:19:21;;;;;;;35.63;20.20;;;;;;;0.72;100.00;100744.06;5104482;28;20450;-59
2022/12/19 02:21:52;;;;;;;40.33;19.47;;;;;;;0.65;100.00;100738.22;5103615;28;20899;-59
2022/12/19 02:25:04;;;;;;;35.03;19.00;;;;;;;0.70;100.00;100723.09;5104116;28;20467;-59
2022/12/19 02:27:51;;;;;;;35.73;18.47;;;;;;;0.71;100.00;100713.41;5025179;28;21057;-59
2022/12/19 02:30:33;;;;;;;31.00;17.77;;;;;;;0.65;100.00;100716.31;5103609;28;20455;-59
2022/12/19 02:33:03;;;;;;;36.83;18.70;;;;;;;0.70;100.00;100706.44;5103130;28;20463;-59
2022/12/19 02:35:34;;;;;;;32.93;18.47;;;;;;;0.71;100.00;100718.66;5103361;28;20490;-59
2022/12/19 02:38:09;;;;;;;33.00;18.40;;;;;;;0.78;100.00;100706.94;5103800;28;20479;-60
2022/12/19 02:40:40;;;;;;;35.73;20.07;;;;;;;0.85;100.00;100707.53;5103037;28;20903;-59
2022/12/19 02:43:09;;;;;;;34.13;18.20;;;;;;;0.93;100.00;100715.97;5102920;28;20486;-59
2022/12/19 02:45:38;;;;;;;35.77;18.43;;;;;;;0.95;100.00;100716.75;5103225;28;20467;-59
2022/12/19 02:48:05;;;;;;;32.50;17.50;;;;;;;0.90;100.00;100713.47;5103264;28;20493;-59
2022/12/19 02:50:37;;;;;;;40.03;20.80;;;;;;;0.91;100.00;100710.75;5102397;28;20486;-59
2022/12/19 02:53:03;;;;;;;37.57;19.63;;;;;;;0.94;100.00;100710.63;5103822;28;20435;-59
2022/12/19 02:55:34;;;;;;;30.40;17.70;;;;;;;1.02;100.00;100707.66;5103022;28;20495;-59
2022/12/19 02:58:45;;;;;;;35.57;18.40;;;;;;;0.96;100.00;100707.94;5103099;28;20484;-59
2022/12/19 03:01:21;;;;;;;34.73;17.87;;;;;;;0.98;100.00;100700.81;5048085;28;20501;-60
2022/12/19 03:03:54;;;;;;;31.00;17.00;;;;;;;0.99;100.00;100699.91;5081757;28;20508;-59
2022/12/19 03:06:26;;;;;;;35.13;18.80;;;;;;;0.89;100.00;100702.09;5076746;28;20479;-59
2022/12/19 03:08:57;;;;;;;37.33;17.97;;;;;;;1.04;100.00;100710.22;5103536;28;20479;-59
2022/12/19 03:11:25;;;;;;;34.23;18.80;;;;;;;0.97;100.00;100696.47;5102305;28;20484;-59
2022/12/19 03:13:55;;;;;;;32.00;17.60;;;;;;;0.98;100.00;100678.91;5102709;28;20524;-59
2022/12/19 03:16:24;;;;;;;33.10;17.23;;;;;;;1.00;100.00;100683.16;5102099;28;20494;-59
2022/12/19 03:18:54;;;;;;;35.73;19.20;;;;;;;1.01;100.00;100677.00;5102397;28;20452;-59
2022/12/19 03:21:26;;;;;;;31.67;17.10;;;;;;;1.05;100.00;100683.81;5102220;28;20514;-59
2022/12/19 03:23:54;;;;;;;33.63;20.30;;;;;;;1.10;100.00;100675.72;5102949;28;20483;-59
2022/12/19 03:26:22;;;;;;;30.40;17.23;;;;;;;1.05;100.00;100669.81;5102310;28;20479;-59
2022/12/19 03:28:53;;;;;;;35.77;19.53;;;;;;;1.08;100.00;100661.78;5102140;28;20520;-59
2022/12/19 03:31:24;;;;;;;32.17;17.20;;;;;;;1.12;100.00;100656.28;5102695;28;20503;-59
2022/12/19 03:33:56;;;;;;;28.47;16.40;;;;;;;1.08;100.00;100646.81;5103342;28;20603;-59
2022/12/19 03:36:26;;;;;;;36.23;20.87;;;;;;;1.18;100.00;100643.75;5101973;28;20532;-59
2022/12/19 03:38:53;;;;;;;30.50;18.07;;;;;;;1.05;100.00;100632.94;5100954;28;20487;-59
2022/12/19 03:43:07;;;;;;;33.67;18.67;;;;;;;1.12;100.00;100640.47;5102259;28;20524;-59
2022/12/19 03:44:08;;;;;;;36.97;18.37;;;;;;;1.15;100.00;100636.00;5100276;28;20562;-60
2022/12/19 03:46:41;;;;;;;33.73;20.40;;;;;;;1.09;100.00;100639.78;5101533;28;20483;-60
2022/12/19 03:49:08;;;;;;;37.90;20.07;;;;;;;1.12;100.00;100631.75;5101732;28;20476;-60
2022/12/19 03:51:40;;;;;;;34.80;19.80;;;;;;;1.19;100.00;100627.88;5102265;28;20503;-60
2022/12/19 03:54:10;;;;;;;35.67;20.17;;;;;;;1.18;100.00;100625.31;5102522;28;20470;-60
2022/12/19 03:56:41;;;;;;;40.27;20.10;;;;;;;1.19;100.00;100622.63;5101296;28;20519;-60
2022/12/19 03:59:11;;;;;;;32.30;19.50;;;;;;;1.18;100.00;100610.41;5101307;28;20460;-60
2022/12/19 04:01:40;;;;;;;33.37;19.40;;;;;;;1.21;100.00;100596.22;5102048;28;20475;-59
2022/12/19 04:04:10;;;;;;;35.07;19.70;;;;;;;1.20;100.00;100611.19;5101922;28;20562;-60
2022/12/19 04:06:39;;;;;;;38.13;21.03;;;;;;;1.17;100.00;100595.50;5100846;28;20506;-59
2022/12/19 04:09:08;;;;;;;34.30;19.00;;;;;;;1.23;100.00;100595.25;5102130;28;20489;-60
2022/12/19 04:11:38;;;;;;;37.40;18.57;;;;;;;1.28;100.00;100585.31;5101784;28;20503;-60
2022/12/19 04:14:08;;;;;;;33.43;18.20;;;;;;;1.33;100.00;100590.38;5101510;28;20462;-60
2022/12/19 04:16:50;;;;;;;37.33;19.77;;;;;;;1.32;100.00;100586.03;5101791;28;20503;-60
2022/12/19 04:19:18;;;;;;;39.10;20.47;;;;;;;1.34;100.00;100581.56;5101287;28;20464;-59
2022/12/19 04:21:49;;;;;;;40.40;20.17;;;;;;;1.41;100.00;100580.31;5101027;28;20495;-60
2022/12/19 04:24:21;;;;;;;37.97;18.37;;;;;;;1.43;100.00;100572.34;5102645;28;20459;-60
2022/12/19 04:26:49;;;;;;;33.93;19.93;;;;;;;1.49;100.00;100574.66;5101274;28;20507;-60
2022/12/19 04:29:16;;;;;;;35.57;19.07;;;;;;;1.54;100.00;100577.09;5100240;28;20511;-59
2022/12/19 04:31:45;;;;;;;36.33;19.87;;;;;;;1.56;100.00;100583.13;5100617;28;20857;-60
2022/12/19 04:34:11;;;;;;;30.47;17.60;;;;;;;1.60;100.00;100571.53;5101041;28;20457;-61
2022/12/19 04:36:39;;;;;;;34.67;19.43;;;;;;;1.54;100.00;100574.44;5100598;28;20507;-60
2022/12/19 04:39:05;;;;;;;33.23;19.17;;;;;;;1.56;100.00;100565.53;5100810;28;20570;-60
2022/12/19 04:41:32;;;;;;;37.47;21.13;;;;;;;1.62;100.00;100572.31;5100924;28;20501;-61
2022/12/19 04:43:59;;;;;;;30.43;18.43;;;;;;;1.50;100.00;100566.69;5100993;28;20483;-60
2022/12/19 04:46:25;;;;;;;37.87;18.97;;;;;;;1.61;100.00;100555.63;5101123;28;20479;-60
2022/12/19 04:48:54;;;;;;;31.53;19.43;;;;;;;1.55;100.00;100558.56;5100417;28;20827;-61
2022/12/19 04:51:21;;;;;;;31.27;19.30;;;;;;;1.60;100.00;100558.34;5101186;28;20475;-61
2022/12/19 04:53:47;;;;;;;30.50;17.57;;;;;;;1.62;100.00;100556.50;5083594;28;20447;-61
2022/12/19 04:56:14;;;;;;;32.03;19.40;;;;;;;1.65;100.00;100551.03;5100996;28;20510;-61
2022/12/19 04:58:41;;;;;;;30.90;17.57;;;;;;;1.74;100.00;100545.34;5098584;28;20459;-60
2022/12/19 05:01:08;;;;;;;35.20;18.20;;;;;;;1.75;100.00;100544.38;5100914;28;20479;-60
2022/12/19 05:03:36;;;;;;;36.47;20.00;;;;;;;1.72;100.00;100531.38;5101506;28;20486;-60
2022/12/19 05:06:06;;;;;;;33.37;19.50;;;;;;;1.69;100.00;100531.53;5100461;28;20471;-60
2022/12/19 05:08:33;;;;;;;37.13;19.10;;;;;;;1.72;100.00;100528.75;5100931;28;20463;-61
2022/12/19 05:11:01;;;;;;;38.60;18.17;;;;;;;1.67;100.00;100523.69;5100893;28;20536;-60
2022/12/19 05:13:29;;;;;;;34.30;19.93;;;;;;;1.70;100.00;100520.03;5100654;28;20524;-61
2022/12/19 05:15:56;;;;;;;40.00;19.63;;;;;;;1.73;100.00;100519.91;5098327;28;20507;-61
2022/12/19 05:18:24;;;;;;;36.47;18.23;;;;;;;1.74;100.00;100513.72;5101221;28;20493;-61
2022/12/19 05:20:52;;;;;;;35.80;19.20;;;;;;;1.74;100.00;100516.34;5100281;28;20617;-62
2022/12/19 05:23:20;;;;;;;35.20;20.17;;;;;;;1.74;100.00;100497.03;5101442;28;20869;-61
2022/12/19 05:25:47;;;;;;;32.47;19.00;;;;;;;1.76;100.00;100508.34;5092456;28;20495;-62
2022/12/19 05:28:14;;;;;;;41.53;21.87;;;;;;;1.81;100.00;100509.81;5089802;28;20436;-59
2022/12/19 05:30:41;;;;;;;39.50;19.20;;;;;;;1.77;100.00;100492.47;5093662;28;20503;-59
2022/12/19 05:33:08;;;;;;;29.23;17.67;;;;;;;1.77;100.00;100492.47;5101124;28;20471;-59
2022/12/19 05:35:35;;;;;;;38.70;19.50;;;;;;;1.83;100.00;100497.41;5086473;28;20551;-59
2022/12/19 05:38:02;;;;;;;28.07;16.57;;;;;;;1.83;100.00;100486.88;5085809;28;20510;-59
2022/12/19 05:40:30;;;;;;;34.40;17.87;;;;;;;1.83;100.00;100484.22;5096458;28;20475;-59
2022/12/19 05:42:57;;;;;;;32.67;19.03;;;;;;;1.90;100.00;100479.50;5082143;28;20533;-59
2022/12/19 05:45:23;;;;;;;35.70;19.93;;;;;;;1.81;100.00;100486.09;5085536;28;20452;-59
2022/12/19 05:47:50;;;;;;;35.17;20.30;;;;;;;1.83;100.00;100491.28;5096384;28;20500;-59
2022/12/19 05:50:18;;;;;;;30.90;17.87;;;;;;;1.92;100.00;100479.41;5103183;28;20972;-59
2022/12/19 05:52:45;;;;;;;36.00;18.93;;;;;;;1.94;100.00;100494.22;5103654;28;21054;-58
2022/12/19 05:55:12;;;;;;;37.53;19.13;;;;;;;1.84;100.00;100487.72;5103451;28;20439;-59
2022/12/19 05:57:40;;;;;;;38.47;21.37;;;;;;;1.91;100.00;100488.25;5082723;28;20472;-59
2022/12/19 06:00:11;;;;;;;46.40;23.27;;;;;;;1.84;100.00;100480.69;5079629;28;20448;-59
2022/12/19 06:02:38;;;;;;;36.70;20.47;;;;;;;1.92;100.00;100484.69;5078328;28;20441;-59
2022/12/19 06:05:06;;;;;;;38.53;21.70;;;;;;;1.91;100.00;100485.63;5085382;28;21008;-60
2022/12/19 06:07:32;;;;;;;34.40;19.93;;;;;;;1.92;100.00;100488.19;5088022;28;20491;-60
2022/12/19 06:09:59;;;;;;;35.20;19.47;;;;;;;1.96;100.00;100480.94;5082632;28;20444;-59
2022/12/19 06:12:26;;;;;;;39.00;21.37;;;;;;;1.91;100.00;100483.84;5081920;28;20480;-60
2022/12/19 06:14:54;;;;;;;39.20;21.47;;;;;;;2.02;100.00;100492.03;5085755;28;20515;-59
2022/12/19 06:17:20;;;;;;;38.83;21.80;;;;;;;2.04;100.00;100479.63;5087019;28;20542;-60
2022/12/19 06:19:47;;;;;;;36.60;21.27;;;;;;;2.06;100.00;100490.09;5076786;28;20468;-59
2022/12/19 06:22:14;;;;;;;45.27;22.57;;;;;;;2.17;100.00;100485.13;5091140;28;21048;-61
2022/12/19 06:24:41;;;;;;;39.83;23.17;;;;;;;2.07;100.00;100476.84;5092782;28;20471;-62
2022/12/19 06:27:07;;;;;;;34.63;20.80;;;;;;;2.00;100.00;100472.81;5082709;28;20532;-61
2022/12/19 06:29:34;;;;;;;37.47;21.90;;;;;;;2.02;100.00;100481.50;5074838;28;20862;-61
2022/12/19 06:32:02;;;;;;;42.23;22.67;;;;;;;2.03;100.00;100475.28;5084201;28;20484;-62
2022/12/19 06:34:29;;;;;;;38.83;21.57;;;;;;;2.02;100.00;100465.66;5089348;28;20934;-61
2022/12/19 06:36:55;;;;;;;31.97;21.60;;;;;;;2.04;100.00;100474.34;5080353;28;20578;-61
2022/12/19 06:39:22;;;;;;;42.07;23.60;;;;;;;2.11;100.00;100490.72;5080616;28;20515;-62
2022/12/19 06:44:33;;;;;;;39.10;22.17;;;;;;;2.16;100.00;100483.41;5097607;28;20505;-63
2022/12/19 06:47:02;;;;;;;38.30;22.63;;;;;;;2.21;100.00;100483.16;5102372;28;20510;-63
2022/12/19 06:49:29;;;;;;;37.53;23.13;;;;;;;2.22;100.00;100488.38;5102098;28;20503;-63
2022/12/19 06:51:56;;;;;;;43.77;23.37;;;;;;;2.25;100.00;100493.47;5102085;28;20506;-64
2022/12/19 06:54:22;;;;;;;40.77;21.43;;;;;;;2.23;100.00;100487.41;5080155;28;20447;-64
2022/12/19 06:56:49;;;;;;;40.53;22.60;;;;;;;2.27;100.00;100493.38;5102034;28;20471;-64
2022/12/19 06:59:16;;;;;;;41.77;23.53;;;;;;;2.34;100.00;100500.03;5101613;28;20485;-63
2022/12/19 07:02:07;;;;;;;41.37;23.27;;;;;;;2.34;100.00;100492.13;5102295;28;20517;-63
2022/12/19 07:04:37;;;;;;;42.67;21.67;;;;;;;2.36;100.00;100489.41;5102752;28;20502;-63
2022/12/19 07:07:04;;;;;;;38.60;21.20;;;;;;;2.39;100.00;100499.78;5101929;28;20490;-63
2022/12/19 07:09:32;;;;;;;42.53;21.60;;;;;;;2.39;100.00;100502.44;5102193;28;20502;-63
2022/12/19 07:11:58;;;;;;;40.27;23.87;;;;;;;2.29;100.00;100494.16;5102136;28;20518;-63
2022/12/19 07:14:25;;;;;;;43.10;23.27;;;;;;;2.44;100.00;100503.03;5102126;28;20477;-63
2022/12/19 07:16:53;;;;;;;41.63;23.30;;;;;;;2.46;100.00;100495.88;5101005;28;20483;-63
2022/12/19 07:19:21;;;;;;;39.00;22.43;;;;;;;2.47;100.00;100492.31;5101037;28;20455;-63
2022/12/19 07:21:48;;;;;;;40.60;22.70;;;;;;;2.42;100.00;100500.47;5101751;28;20547;-62
2022/12/19 07:24:15;;;;;;;39.33;21.73;;;;;;;2.48;100.00;100504.56;5100202;28;20529;-62
2022/12/19 07:26:42;;;;;;;34.00;21.67;;;;;;;2.47;100.00;100499.41;5101619;28;20475;-62
2022/12/19 07:29:09;;;;;;;44.60;22.00;;;;;;;2.54;100.00;100498.13;5101537;28;20455;-62
2022/12/19 07:31:36;;;;;;;39.20;23.03;;;;;;;2.53;100.00;100504.31;5095722;28;20487;-62
2022/12/19 07:34:03;;;;;;;40.60;23.93;;;;;;;2.50;100.00;100510.66;5085690;28;20452;-62
2022/12/19 07:36:32;;;;;;;48.80;24.73;;;;;;;2.45;100.00;100500.31;5083462;28;20479;-61
2022/12/19 07:38:59;;;;;;;43.73;23.40;;;;;;;2.59;100.00;100504.00;5045509;28;1285121;-61
2022/12/19 07:41:25;;;;;;;41.90;22.47;;;;;;;2.52;100.00;100503.50;5096305;28;20508;-61
2022/12/19 07:43:52;;;;;;;41.23;23.13;;;;;;;2.59;100.00;100504.00;5101679;28;20483;-61
2022/12/19 07:46:19;;;;;;;45.10;21.93;;;;;;;2.48;100.00;100503.72;5081990;28;20476;-62
2022/12/19 07:48:46;;;;;;;53.87;24.90;;;;;;;2.48;100.00;100499.28;5096503;28;20936;-62
2022/12/19 07:51:13;;;;;;;38.30;21.57;;;;;;;2.58;100.00;100502.28;5097833;28;20483;-62
2022/12/19 07:53:41;;;;;;;41.93;23.80;;;;;;;2.69;100.00;100506.97;5103036;28;20454;-62
2022/12/19 07:56:09;;;;;;;43.77;24.00;;;;;;;2.57;100.00;100506.72;5101477;28;20573;-62
2022/12/19 07:58:35;;;;;;;42.33;25.27;;;;;;;2.55;100.00;100511.25;5101406;28;20488;-62
2022/12/19 08:01:02;;;;;;;37.40;21.50;;;;;;;2.52;100.00;100508.75;5100425;28;20788;-61
2022/12/19 08:03:32;;;;;;;38.47;22.50;;;;;;;2.54;100.00;100516.59;5100025;28;20443;-62
2022/12/19 08:06:03;;;;;;;40.90;21.30;;;;;;;2.58;100.00;100510.22;5093272;28;20464;-62
2022/12/19 08:08:31;;;;;;;39.50;21.30;;;;;;;2.66;100.00;100518.56;5080725;28;20436;-62
2022/12/19 08:11:11;;;;;;;34.67;20.77;;;;;;;2.69;100.00;100506.97;5095937;28;21027;-62
2022/12/19 08:13:38;;;;;;;44.47;23.60;;;;;;;2.70;100.00;100504.25;5097631;28;20447;-62
2022/12/19 08:16:06;;;;;;;47.30;24.60;;;;;;;2.72;100.00;100507.66;5080292;28;20530;-63
2022/12/19 08:18:32;;;;;;;38.93;22.90;;;;;;;2.71;100.00;100497.19;5089319;28;20905;-63
2022/12/19 08:20:59;;;;;;;40.03;22.23;;;;;;;2.75;100.00;100502.22;5091820;28;20502;-63
2022/12/19 08:23:26;;;;;;;40.03;22.90;;;;;;;2.74;100.00;100503.19;5100955;28;20490;-63
2022/12/19 08:25:59;;;;;;;37.83;23.00;;;;;;;2.83;100.00;100494.75;5095866;28;20488;-63
2022/12/19 08:28:27;;;;;;;37.20;19.40;;;;;;;2.79;100.00;100503.75;5079888;28;20479;-63
2022/12/19 08:30:54;;;;;;;40.57;21.73;;;;;;;2.91;100.00;100496.94;5080227;28;20506;-63
2022/12/19 08:33:21;;;;;;;35.30;19.57;;;;;;;2.89;100.00;100492.69;5080546;28;20475;-63
2022/12/19 08:35:49;;;;;;;41.17;21.83;;;;;;;3.03;100.00;100494.56;5096002;28;20473;-62
2022/12/19 08:38:16;;;;;;;34.37;19.63;;;;;;;3.04;100.00;100489.19;5089512;28;20736;-63
2022/12/19 08:40:43;;;;;;;33.67;18.87;;;;;;;3.10;100.00;100493.28;5093835;28;20468;-63
2022/12/19 08:43:10;;;;;;;29.27;16.20;;;;;;;3.23;100.00;100494.28;5098454;28;20962;-63
2022/12/19 08:45:40;;;;;;;37.20;20.60;;;;;;;3.43;100.00;100492.28;5100246;28;20498;-63
2022/12/19 08:48:08;;;;;;;37.37;21.67;;;;;;;3.39;100.00;100487.16;5092024;28;20456;-63
2022/12/19 08:50:34;;;;;;;23.97;16.00;;;;;;;3.45;100.00;100477.19;5080281;28;20470;-63
2022/12/19 08:53:01;;;;;;;35.80;20.40;;;;;;;3.52;100.00;100481.16;5093365;28;20439;-63
2022/12/19 08:55:28;;;;;;;27.67;18.70;;;;;;;3.57;100.00;100481.75;5088994;28;20468;-62
2022/12/19 08:57:55;;;;;;;35.13;17.83;;;;;;;3.67;100.00;100484.72;5092647;28;20447;-63
2022/12/19 09:00:22;;;;;;;27.83;17.23;;;;;;;3.70;100.00;100480.09;5091064;28;20484;-63
2022/12/19 09:02:50;;;;;;;28.20;17.97;;;;;;;3.66;100.00;100475.91;5099337;28;20443;-63
2022/12/19 09:05:17;;;;;;;34.47;17.20;;;;;;;3.74;100.00;100470.19;5082840;28;20480;-63
2022/12/19 09:07:43;;;;;;;25.77;16.10;;;;;;;3.81;100.00;100479.44;5093218;28;20856;-63
2022/12/19 09:10:10;;;;;;;26.53;16.40;;;;;;;3.82;100.00;100482.94;5078612;28;20478;-63
2022/12/19 09:12:37;;;;;;;27.50;17.43;;;;;;;3.90;100.00;100488.63;5094764;28;20448;-63
2022/12/19 09:15:05;;;;;;;27.10;14.93;;;;;;;4.12;100.00;100480.25;5080657;28;20457;-63
2022/12/19 09:17:32;;;;;;;22.73;15.33;;;;;;;4.11;100.00;100474.13;5079186;28;20452;-63
2022/12/19 09:20:00;;;;;;;28.20;16.80;;;;;;;4.17;100.00;100482.59;5078547;28;20448;-63
2022/12/19 09:22:27;;;;;;;22.90;13.83;;;;;;;4.21;100.00;100486.78;5096443;28;20506;-63
2022/12/19 09:24:54;;;;;;;26.13;15.37;;;;;;;4.40;100.00;100470.63;5094256;28;20675;-64
2022/12/19 09:27:21;;;;;;;23.80;14.90;;;;;;;4.51;100.00;100479.59;5091825;28;20498;-63
2022/12/19 09:29:48;;;;;;;19.43;14.17;;;;;;;4.55;100.00;100472.31;5082387;28;20470;-64
2022/12/19 09:32:16;;;;;;;23.40;15.53;;;;;;;4.66;100.00;100479.56;5078794;28;20885;-64
2022/12/19 09:34:43;;;;;;;23.90;15.73;;;;;;;4.65;100.00;100472.56;5081908;28;20443;-63
2022/12/19 09:37:14;;;;;;;26.60;16.40;;;;;;;4.80;100.00;100471.59;5080929;28;20591;-63
2022/12/19 09:39:41;;;;;;;22.03;14.57;;;;;;;4.86;100.00;100473.84;5063260;28;20483;-64
2022/12/19 09:42:48;;;;;;;23.80;15.40;;;;;;;4.86;100.00;100471.22;5058383;28;20480;-64
2022/12/19 09:45:29;;;;;;;20.03;13.50;;;;;;;5.03;100.00;100478.03;5057039;28;21021;-64
2022/12/19 09:47:57;;;;;;;22.10;14.30;;;;;;;5.03;100.00;100464.78;5060970;28;20445;-64
2022/12/19 09:50:34;;;;;;;19.27;13.33;;;;;;;5.18;100.00;100462.13;5059877;28;20817;-64
2022/12/19 09:53:06;;;;;;;20.93;14.27;;;;;;;5.34;100.00;100465.44;5057791;28;20443;-64
2022/12/19 09:55:35;;;;;;;23.30;16.77;;;;;;;5.46;100.00;100469.06;5055033;28;20465;-64
2022/12/19 09:58:06;;;;;;;22.50;14.47;;;;;;;5.53;100.00;100464.22;5074555;28;20444;-64
2022/12/19 10:00:36;;;;;;;21.47;13.73;;;;;;;5.60;100.00;100466.34;5075190;28;20482;-64
2022/12/19 10:03:06;;;;;;;22.73;15.50;;;;;;;5.69;100.00;100470.19;5076708;28;20968;-64
2022/12/19 10:05:37;;;;;;;18.77;14.00;;;;;;;5.85;100.00;100465.53;5077874;28;20472;-64
2022/12/19 10:08:14;;;;;;;20.87;14.83;;;;;;;5.90;100.00;100473.16;5078054;28;20452;-64
2022/12/19 10:10:50;;;;;;;19.73;13.60;;;;;;;5.77;100.00;100461.72;5070136;28;20472;-64
2022/12/19 10:13:25;;;;;;;20.00;14.70;;;;;;;5.92;100.00;100454.50;5066504;28;20445;-64
2022/12/19 10:15:56;;;;;;;25.60;15.77;;;;;;;5.89;100.00;100454.72;5067276;28;20464;-64
2022/12/19 10:18:42;;;;;;;18.70;13.87;;;;;;;6.10;100.00;100447.94;5060214;28;20457;-64
2022/12/19 10:21:11;;;;;;;24.77;15.63;;;;;;;6.26;100.00;100458.34;5053843;28;20469;-64
2022/12/19 10:23:52;;;;;;;22.33;15.70;;;;;;;6.39;100.00;100459.19;5061400;28;20448;-65
2022/12/19 10:26:21;;;;;;;24.70;15.83;;;;;;;6.54;100.00;100459.03;5061812;28;20473;-64
2022/12/19 10:28:59;;;;;;;21.13;14.93;;;;;;;6.57;100.00;100454.34;5071281;28;20468;-64
2022/12/19 10:31:32;;;;;;;21.40;14.60;;;;;;;6.50;100.00;100452.25;5065360;28;20521;-64
2022/12/19 10:34:02;;;;;;;23.50;15.77;;;;;;;6.54;100.00;100459.88;5077796;28;20443;-64
2022/12/19 10:36:31;;;;;;;20.13;14.67;;;;;;;6.52;100.00;100448.53;5071685;28;20751;-64
2022/12/19 10:39:04;;;;;;;20.47;13.90;;;;;;;6.55;100.00;100447.47;5071381;28;20488;-65
2022/12/19 10:41:32;;;;;;;19.47;14.47;;;;;;;6.64;100.00;100441.47;5090613;28;20484;-64
2022/12/19 10:44:04;;;;;;;21.77;14.97;;;;;;;6.81;100.00;100448.25;5090522;28;20485;-64
2022/12/19 10:46:39;;;;;;;17.67;13.13;;;;;;;6.69;100.00;100441.16;5098260;28;20505;-64
2022/12/19 10:49:16;;;;;;;19.13;13.40;;;;;;;6.67;100.00;100438.63;5089051;28;20442;-64
2022/12/19 10:51:53;;;;;;;19.00;14.10;;;;;;;6.77;100.00;100442.31;5100009;28;20501;-64
2022/12/19 10:54:23;;;;;;;20.10;13.53;;;;;;;6.90;100.00;100446.72;5101631;28;20451;-64
2022/12/19 10:56:50;;;;;;;19.10;14.50;;;;;;;6.94;100.00;100450.84;5097284;28;20483;-64
2022/12/19 10:59:18;;;;;;;17.20;13.53;;;;;;;6.95;100.00;100447.25;5095664;28;20498;-64
2022/12/19 11:01:45;;;;;;;17.60;12.87;;;;;;;6.74;100.00;100437.22;5080858;28;20533;-64
2022/12/19 11:04:22;;;;;;;17.57;12.53;;;;;;;6.71;100.00;100440.06;5091436;28;20504;-64
2022/12/19 11:06:50;;;;;;;17.00;13.37;;;;;;;6.97;100.00;100438.19;5084667;28;20471;-65
2022/12/19 11:09:28;;;;;;;18.73;13.13;;;;;;;7.04;100.00;100440.41;5082499;28;20452;-64
2022/12/19 11:12:06;;;;;;;17.17;12.97;;;;;;;7.17;100.00;100443.84;5083020;28;20980;-64
2022/12/19 11:14:35;;;;;;;15.70;13.30;;;;;;;7.08;100.00;100440.06;5082940;28;20508;-64
2022/12/19 11:17:02;;;;;;;18.40;12.77;;;;;;;7.23;100.00;100437.22;5085621;28;20482;-64
2022/12/19 11:19:32;;;;;;;16.20;13.40;;;;;;;7.24;100.00;100422.94;5081877;28;20428;-64
2022/12/19 11:22:03;;;;;;;15.37;12.73;;;;;;;7.23;100.00;100416.78;5085098;28;20857;-64
2022/12/19 11:24:35;;;;;;;16.23;12.90;;;;;;;7.29;100.00;100421.66;5082637;28;20459;-64